Time;durP1;ratioP1;P1;durP2;ratioP2;P2;SDS_P1;SDS_P2;PMS_P1;PMS_P2;Temp;Humidity;BMP_temperature;BMP_pressure;BME280_temperature;BME280_humidity;BME280_pressure;Samples;Min_cycle;Max_cycle;Signal;HPM_P1;HPM_P2
2022/12/22 03:27:21;;;;;;;7.22;5.20;;;10.10;99.90;;;;;;5052101;28;20047;-54
2022/12/22 03:29:46;;;;;;;7.95;4.95;;;10.10;99.90;;;;;;5050813;28;20099;-50
2022/12/22 03:32:12;;;;;;;6.45;5.22;;;10.10;99.90;;;;;;5051104;28;20097;-50
2022/12/22 03:34:37;;;;;;;9.52;4.97;;;10.10;99.90;;;;;;5051695;28;20031;-51
2022/12/22 03:37:03;;;;;;;6.60;4.50;;;10.10;99.90;;;;;;5033851;28;20507;-53
2022/12/22 03:39:28;;;;;;;4.40;3.92;;;10.10;99.90;;;;;;5051685;28;20094;-49
2022/12/22 03:47:22;;;;;;;4.78;4.18;;;10.20;99.90;;;;;;5051677;28;20032;-52
2022/12/22 03:49:47;;;;;;;7.47;4.10;;;10.20;99.90;;;;;;5051570;28;20021;-53
2022/12/22 03:52:13;;;;;;;5.45;3.90;;;10.20;99.90;;;;;;5032946;28;20031;-51
2022/12/22 03:54:38;;;;;;;6.45;4.35;;;10.20;99.90;;;;;;5051378;28;20404;-50
2022/12/22 03:57:04;;;;;;;5.88;4.03;;;10.20;99.90;;;;;;5051182;28;20519;-52
2022/12/22 03:59:29;;;;;;;5.07;4.03;;;10.20;99.90;;;;;;5051474;28;20039;-51
2022/12/22 04:01:55;;;;;;;4.90;4.15;;;10.20;99.90;;;;;;5050904;28;20106;-53
2022/12/22 04:04:22;;;;;;;7.03;4.45;;;10.20;99.90;;;;;;5051266;28;20505;-50
2022/12/22 04:06:48;;;;;;;5.95;3.85;;;10.20;99.90;;;;;;5051367;28;20021;-55
2022/12/22 04:09:13;;;;;;;5.10;4.10;;;10.20;99.90;;;;;;5051394;28;20102;-53
2022/12/22 04:14:23;;;;;;;6.75;3.85;;;10.30;99.90;;;;;;5051722;28;20460;-54
2022/12/22 04:16:49;;;;;;;4.22;3.63;;;10.30;99.90;;;;;;5051131;28;20037;-52
2022/12/22 04:19:15;;;;;;;5.47;3.72;;;10.20;99.90;;;;;;5051314;28;20044;-54
2022/12/22 04:21:41;;;;;;;6.78;3.67;;;10.20;99.90;;;;;;5049963;28;20028;-53
2022/12/22 04:24:07;;;;;;;7.80;3.97;;;10.20;99.90;;;;;;5048948;28;20075;-52
2022/12/22 04:26:33;;;;;;;8.18;4.35;;;10.20;99.90;;;;;;5050945;28;20263;-54
2022/12/22 04:28:58;;;;;;;8.75;4.32;;;10.20;99.90;;;;;;5050089;28;20029;-51
2022/12/22 04:31:24;;;;;;;7.15;4.88;;;10.20;99.90;;;;;;5051131;28;20477;-52
2022/12/22 04:33:50;;;;;;;7.70;4.53;;;10.20;99.90;;;;;;5049084;28;20123;-52
2022/12/22 04:36:16;;;;;;;4.97;3.80;;;10.20;99.90;;;;;;5050781;28;20068;-52
2022/12/22 04:38:42;;;;;;;5.90;3.90;;;10.30;99.90;;;;;;5051049;28;20028;-52
2022/12/22 04:41:08;;;;;;;6.00;3.45;;;10.30;99.90;;;;;;5051033;28;20025;-54
2022/12/22 04:43:34;;;;;;;8.50;4.05;;;10.30;99.90;;;;;;5050180;28;20040;-55
2022/12/22 04:46:00;;;;;;;5.22;3.28;;;10.40;99.90;;;;;;5051046;28;20025;-51
2022/12/22 04:48:27;;;;;;;5.57;3.53;;;10.40;99.90;;;;;;5050918;28;20025;-50
2022/12/22 04:50:54;;;;;;;7.72;3.45;;;10.40;99.90;;;;;;5032933;28;20083;-51
2022/12/22 04:53:21;;;;;;;5.55;3.28;;;10.40;99.90;;;;;;5050319;28;20520;-55
2022/12/22 04:55:48;;;;;;;6.35;3.30;;;10.40;99.90;;;;;;5050826;28;20053;-54
2022/12/22 04:58:14;;;;;;;4.07;2.60;;;10.50;99.90;;;;;;5050666;28;20484;-52
2022/12/22 05:00:39;;;;;;;4.90;2.70;;;10.50;99.90;;;;;;5050727;28;20033;-51
2022/12/22 05:03:06;;;;;;;8.10;3.38;;;10.50;99.90;;;;;;5048896;28;20025;-50
2022/12/22 05:05:31;;;;;;;6.05;2.85;;;10.50;99.90;;;;;;5049424;28;20121;-49
2022/12/22 05:07:57;;;;;;;4.28;2.88;;;10.50;99.90;;;;;;5032927;28;20056;-53
2022/12/22 05:10:22;;;;;;;5.70;2.50;;;10.40;99.90;;;;;;5052411;28;20021;-53
2022/12/22 05:12:53;;;;;;;4.05;2.40;;;10.40;99.90;;;;;;5053726;28;20040;-51
2022/12/22 05:15:39;;;;;;;4.57;2.75;;;10.50;99.90;;;;;;5054607;28;20393;-53
2022/12/22 05:18:05;;;;;;;5.50;2.60;;;10.50;99.90;;;;;;5054103;28;20037;-54
2022/12/22 05:20:31;;;;;;;4.95;2.70;;;10.50;99.90;;;;;;5054265;28;20036;-56
2022/12/22 05:22:57;;;;;;;4.15;2.80;;;10.50;99.90;;;;;;5035637;28;20082;-52
2022/12/22 05:25:22;;;;;;;8.00;2.97;;;10.50;99.90;;;;;;5054225;28;20025;-53
2022/12/22 05:27:49;;;;;;;4.18;2.67;;;10.50;99.90;;;;;;5054204;28;20549;-56
2022/12/22 05:30:15;;;;;;;5.43;2.60;;;10.50;99.90;;;;;;5053143;28;20025;-54
2022/12/22 05:32:41;;;;;;;3.05;2.00;;;10.50;99.90;;;;;;5053384;28;20094;-56
2022/12/22 05:35:07;;;;;;;4.95;2.33;;;10.50;99.90;;;;;;5054153;28;20480;-54
2022/12/22 05:37:33;;;;;;;2.25;1.95;;;10.50;99.90;;;;;;5053871;28;20150;-56
2022/12/22 05:39:59;;;;;;;2.13;1.85;;;10.50;99.90;;;;;;5053945;28;20096;-54
2022/12/22 05:42:36;;;;;;;4.68;1.85;;;10.50;99.90;;;;;;5051676;28;20027;-55
2022/12/22 05:45:16;;;;;;;1.55;1.45;;;10.50;99.90;;;;;;5053976;28;20072;-52
2022/12/22 05:47:43;;;;;;;5.68;1.42;;;10.50;99.90;;;;;;5052512;28;20491;-53
2022/12/22 05:50:10;;;;;;;3.25;2.35;;;10.60;99.90;;;;;;5053823;28;20040;-52
2022/12/22 05:52:35;;;;;;;3.33;2.17;;;10.60;99.90;;;;;;5052841;28;20033;-50
2022/12/22 05:55:01;;;;;;;2.40;1.90;;;10.60;99.90;;;;;;5035562;28;20503;-52
2022/12/22 05:57:27;;;;;;;1.95;1.45;;;10.60;99.90;;;;;;5053567;28;20473;-53
2022/12/22 05:59:52;;;;;;;2.28;1.20;;;10.60;99.90;;;;;;5053667;28;20027;-55
2022/12/22 06:02:18;;;;;;;2.10;1.30;;;10.60;99.90;;;;;;5052854;28;20027;-51
2022/12/22 06:04:43;;;;;;;4.15;1.40;;;10.60;99.90;;;;;;5053408;28;20108;-54
2022/12/22 06:07:09;;;;;;;1.40;1.30;;;10.60;99.90;;;;;;5053388;28;20025;-52
2022/12/22 06:09:34;;;;;;;5.60;1.75;;;10.50;99.90;;;;;;5035400;28;20079;-53
2022/12/22 06:12:01;;;;;;;3.20;1.88;;;10.50;99.90;;;;;;5052578;28;20029;-52
2022/12/22 06:14:26;;;;;;;4.68;1.60;;;10.50;99.90;;;;;;5053352;28;20104;-50
2022/12/22 06:16:52;;;;;;;1.70;1.20;;;10.50;99.90;;;;;;5051957;28;20564;-54
2022/12/22 06:19:17;;;;;;;4.38;1.20;;;10.50;99.90;;;;;;5053462;28;20100;-50
2022/12/22 06:21:43;;;;;;;1.98;1.73;;;10.50;99.90;;;;;;5053065;28;20509;-53
2022/12/22 06:24:08;;;;;;;1.40;1.20;;;10.40;99.90;;;;;;5052006;28;20028;-56
2022/12/22 06:26:34;;;;;;;8.63;1.73;;;10.40;99.90;;;;;;5053322;28;20025;-53
2022/12/22 06:28:59;;;;;;;4.28;1.42;;;10.50;99.90;;;;;;5051290;28;20151;-50
2022/12/22 06:31:25;;;;;;;2.90;1.90;;;10.50;99.90;;;;;;5053412;28;20028;-50
2022/12/22 06:33:50;;;;;;;2.83;2.05;;;10.50;99.90;;;;;;5052156;28;20025;-55
2022/12/22 06:36:16;;;;;;;2.78;1.65;;;10.50;99.90;;;;;;5052621;28;20480;-52
2022/12/22 06:38:41;;;;;;;5.13;1.88;;;10.50;99.90;;;;;;5051666;28;20025;-52
2022/12/22 06:41:07;;;;;;;2.90;1.55;;;10.50;99.90;;;;;;5052870;28;20021;-53
2022/12/22 06:43:32;;;;;;;2.17;1.73;;;10.50;99.90;;;;;;5051874;28;20078;-53
2022/12/22 06:45:58;;;;;;;3.47;1.27;;;10.50;99.90;;;;;;5052900;28;20033;-55
2022/12/22 06:48:23;;;;;;;7.65;1.88;;;10.50;99.90;;;;;;5052530;28;20552;-51
2022/12/22 06:50:50;;;;;;;2.65;1.33;;;10.50;99.90;;;;;;5052574;28;20028;-53
2022/12/22 06:53:16;;;;;;;1.67;1.55;;;10.60;99.90;;;;;;5051712;28;20032;-52
2022/12/22 06:55:41;;;;;;;6.15;1.42;;;10.60;99.90;;;;;;5052611;28;20025;-53
2022/12/22 06:58:07;;;;;;;1.40;1.10;;;10.60;99.90;;;;;;5051259;28;20036;-53
2022/12/22 07:00:33;;;;;;;5.20;1.15;;;10.70;99.90;;;;;;5051284;28;20104;-50
2022/12/22 07:02:59;;;;;;;3.13;1.02;;;10.70;99.90;;;;;;5051479;28;20033;-55
2022/12/22 07:05:25;;;;;;;3.08;1.52;;;10.70;99.90;;;;;;5052029;28;20032;-51
2022/12/22 07:07:51;;;;;;;3.28;1.20;;;10.70;99.90;;;;;;5052097;28;20074;-50
2022/12/22 07:10:17;;;;;;;2.42;1.02;;;10.80;99.90;;;;;;5052622;28;20021;-52
2022/12/22 07:12:42;;;;;;;4.78;1.10;;;10.90;99.90;;;;;;5051280;28;20032;-55
2022/12/22 07:15:08;;;;;;;1.92;1.50;;;10.80;99.90;;;;;;5052214;28;20032;-51
2022/12/22 07:17:34;;;;;;;3.92;1.10;;;10.80;99.90;;;;;;5051977;28;20043;-50
2022/12/22 07:19:59;;;;;;;6.45;1.50;;;10.80;99.90;;;;;;5051939;28;20477;-53
2022/12/22 07:22:25;;;;;;;2.10;1.10;;;10.80;99.90;;;;;;5033226;28;20111;-55
2022/12/22 07:24:51;;;;;;;6.95;1.70;;;10.80;99.90;;;;;;5079834;22;20052;-49
2022/12/22 07:27:16;;;;;;;4.07;1.65;;;10.80;99.90;;;;;;5053951;28;20021;-48
2022/12/22 07:29:42;;;;;;;5.22;2.05;;;10.70;99.90;;;;;;5053043;28;20017;-48
2022/12/22 07:32:07;;;;;;;4.40;1.60;;;10.70;99.90;;;;;;5032747;28;20120;-52
2022/12/22 07:34:33;;;;;;;5.40;1.45;;;10.70;99.90;;;;;;5030820;28;20443;-48
2022/12/22 07:36:59;;;;;;;4.38;1.52;;;10.70;99.90;;;;;;5031861;28;20393;-46
2022/12/22 07:39:24;;;;;;;9.65;1.48;;;10.70;99.90;;;;;;5031999;28;20497;-49
2022/12/22 07:44:34;;;;;;;2.28;1.33;;;10.70;99.90;;;;;;5031929;28;20571;-50
2022/12/22 07:46:59;;;;;;;4.57;1.83;;;10.70;99.90;;;;;;5031780;28;20030;-52
2022/12/22 07:52:09;;;;;;;3.10;1.58;;;10.80;99.90;;;;;;5030967;28;20028;-51
2022/12/22 07:54:35;;;;;;;5.28;1.33;;;10.90;99.90;;;;;;5030452;28;20029;-49
2022/12/22 07:57:00;;;;;;;10.38;2.85;;;10.90;99.90;;;;;;5030275;28;20125;-48
2022/12/22 07:59:26;;;;;;;5.82;1.35;;;10.90;99.90;;;;;;5031770;28;20030;-46
2022/12/22 08:01:52;;;;;;;4.68;1.50;;;10.80;99.90;;;;;;5031460;28;20029;-52
2022/12/22 08:04:18;;;;;;;6.72;1.35;;;10.90;99.90;;;;;;5030284;28;20060;-50
2022/12/22 08:06:44;;;;;;;2.60;1.38;;;11.00;99.90;;;;;;5032089;28;20025;-51
2022/12/22 08:09:13;;;;;;;4.03;1.23;;;11.00;99.90;;;;;;5032216;28;20025;-50
2022/12/22 08:11:38;;;;;;;3.35;0.98;;;11.00;99.90;;;;;;5031761;28;20140;-49
2022/12/22 08:14:04;;;;;;;1.83;1.00;;;11.00;99.90;;;;;;5031097;28;20497;-51
2022/12/22 08:16:30;;;;;;;4.38;1.23;;;11.10;99.90;;;;;;5030419;28;20554;-49
2022/12/22 08:18:56;;;;;;;2.42;1.23;;;11.10;99.90;;;;;;5030679;28;20470;-51
2022/12/22 08:21:21;;;;;;;2.28;1.13;;;11.10;99.90;;;;;;5031875;28;20026;-48
2022/12/22 08:23:47;;;;;;;4.45;1.33;;;11.20;99.90;;;;;;5029305;28;20124;-50
2022/12/22 08:26:35;;;;;;;1.65;0.95;;;11.20;99.90;;;;;;5031499;28;20025;-50
2022/12/22 08:29:18;;;;;;;1.15;0.68;;;11.30;99.90;;;;;;5028762;28;20052;-48
2022/12/22 08:31:43;;;;;;;7.85;2.20;;;11.30;99.90;;;;;;5031876;28;20022;-52
2022/12/22 08:34:12;;;;;;;2.72;1.20;;;11.30;99.90;;;;;;5029536;28;20048;-48
2022/12/22 08:36:42;;;;;;;5.35;1.10;;;11.30;99.90;;;;;;5030351;28;20115;-50
2022/12/22 08:39:08;;;;;;;2.95;1.60;;;11.30;99.90;;;;;;5031663;28;20026;-50
2022/12/22 08:41:50;;;;;;;7.10;1.83;;;11.40;99.90;;;;;;5031820;28;20033;-48
2022/12/22 08:44:22;;;;;;;3.13;1.52;;;11.40;99.90;;;;;;5031741;28;20034;-52
2022/12/22 08:46:48;;;;;;;5.22;1.77;;;11.40;99.90;;;;;;5035319;28;20029;-52
2022/12/22 08:49:14;;;;;;;3.67;1.40;;;11.40;99.90;;;;;;5036624;28;20366;-51
2022/12/22 08:51:39;;;;;;;5.70;1.25;;;11.50;99.90;;;;;;5035669;28;20076;-50
2022/12/22 08:54:05;;;;;;;8.63;1.38;;;11.50;99.90;;;;;;5034604;28;20084;-49
2022/12/22 08:56:30;;;;;;;8.25;1.63;;;11.50;99.90;;;;;;5035230;28;20033;-53
2022/12/22 08:58:56;;;;;;;10.65;2.17;;;11.50;99.90;;;;;;5038601;28;20384;-49
2022/12/22 09:01:22;;;;;;;7.57;1.92;;;11.50;99.90;;;;;;5054346;28;20425;-49
2022/12/22 09:03:49;;;;;;;5.82;2.28;;;11.60;99.90;;;;;;5054375;28;20029;-51
2022/12/22 09:06:16;;;;;;;10.30;2.65;;;11.50;99.90;;;;;;5047307;28;20017;-48
2022/12/22 09:08:42;;;;;;;10.45;2.63;;;11.60;99.90;;;;;;5050221;28;20026;-49
2022/12/22 09:11:07;;;;;;;8.57;1.85;;;11.60;99.90;;;;;;5046475;28;20021;-50
2022/12/22 09:13:33;;;;;;;9.52;2.47;;;11.60;99.90;;;;;;5033459;28;20493;-56
2022/12/22 09:15:58;;;;;;;11.98;2.38;;;11.60;99.90;;;;;;5047343;28;20530;-49
2022/12/22 09:18:24;;;;;;;6.70;1.70;;;11.60;99.90;;;;;;5045301;28;20149;-51
2022/12/22 09:20:56;;;;;;;10.65;2.95;;;11.60;99.90;;;;;;5048516;28;20114;-49
2022/12/22 09:23:21;;;;;;;5.03;1.80;;;11.60;99.90;;;;;;5050125;28;20486;-50
2022/12/22 09:25:47;;;;;;;7.90;1.80;;;11.60;99.90;;;;;;5053170;28;20069;-48
2022/12/22 09:28:12;;;;;;;9.43;1.98;;;11.70;99.90;;;;;;5041239;28;20029;-49
2022/12/22 09:30:38;;;;;;;9.43;1.92;;;11.70;99.90;;;;;;5034470;28;20029;-50
2022/12/22 09:33:03;;;;;;;5.82;1.75;;;11.70;99.90;;;;;;5033894;28;20033;-53
2022/12/22 09:35:29;;;;;;;8.43;2.10;;;11.70;99.90;;;;;;5016690;28;20029;-50
2022/12/22 09:37:54;;;;;;;5.50;1.88;;;11.80;99.90;;;;;;5033170;28;20120;-52
2022/12/22 09:40:21;;;;;;;5.97;1.85;;;11.80;99.90;;;;;;5027713;28;20028;-51
2022/12/22 09:42:46;;;;;;;11.32;1.98;;;11.80;99.90;;;;;;5053299;28;20033;-51
2022/12/22 09:45:18;;;;;;;9.60;1.95;;;11.70;99.90;;;;;;5069584;28;20017;-53
2022/12/22 09:47:52;;;;;;;9.07;1.80;;;11.80;99.90;;;;;;5054462;28;20025;-50
2022/12/22 09:50:22;;;;;;;7.50;2.25;;;11.70;99.90;;;;;;5069729;28;20021;-53
2022/12/22 09:52:52;;;;;;;9.15;2.30;;;11.80;99.90;;;;;;5053475;28;20082;-52
2022/12/22 09:55:23;;;;;;;5.82;1.77;;;11.80;99.90;;;;;;5053567;28;20028;-51
2022/12/22 09:57:50;;;;;;;5.53;2.30;;;11.80;99.90;;;;;;5054256;28;20020;-54
2022/12/22 10:00:18;;;;;;;8.85;2.97;;;11.70;99.90;;;;;;5054194;28;20025;-54
2022/12/22 10:03:11;;;;;;;3.28;1.40;;;11.70;99.90;;;;;;5053409;28;20021;-50
2022/12/22 10:05:44;;;;;;;6.40;2.08;;;11.70;99.90;;;;;;5053925;28;20511;-50
2022/12/22 10:08:12;;;;;;;10.57;2.13;;;11.80;99.90;;;;;;5052893;28;20029;-48
2022/12/22 10:10:39;;;;;;;6.13;1.50;;;11.70;99.90;;;;;;5053953;28;20476;-51
2022/12/22 10:13:05;;;;;;;7.72;1.65;;;11.70;99.90;;;;;;5052994;28;20064;-52
2022/12/22 10:15:39;;;;;;;6.13;2.78;;;11.70;99.90;;;;;;5053830;28;20119;-49
2022/12/22 10:18:15;;;;;;;10.37;2.43;;;11.80;99.90;;;;;;5053674;28;20033;-53
2022/12/22 10:20:46;;;;;;;4.28;1.48;;;11.80;99.90;;;;;;5053795;28;20029;-46
2022/12/22 10:23:28;;;;;;;5.95;1.27;;;11.90;99.90;;;;;;5052974;28;20039;-51
2022/12/22 10:25:53;;;;;;;5.43;1.65;;;11.90;99.90;;;;;;5052964;28;20498;-51
2022/12/22 10:28:24;;;;;;;2.85;1.10;;;12.00;99.90;;;;;;5053265;28;20067;-50
2022/12/22 10:31:18;;;;;;;3.15;0.90;;;12.00;99.90;;;;;;5053459;28;20021;-47
2022/12/22 10:33:45;;;;;;;3.35;0.90;;;12.10;99.90;;;;;;5052420;28;20397;-47
2022/12/22 10:36:13;;;;;;;2.40;0.60;;;12.10;99.90;;;;;;5052012;28;20029;-51
2022/12/22 10:39:07;;;;;;;2.13;0.80;;;12.10;99.90;;;;;;5053393;28;20036;-50
2022/12/22 10:41:39;;;;;;;2.75;0.98;;;12.00;99.90;;;;;;5029903;28;20120;-52
2022/12/22 10:44:14;;;;;;;3.72;0.93;;;12.00;99.90;;;;;;5052932;28;20025;-52
2022/12/22 10:46:45;;;;;;;;;;;11.90;99.90;;;;;;5053624;28;20048;-49
2022/12/22 10:49:21;;;;;;;3.97;1.05;;;11.80;99.90;;;;;;5054019;28;19995;-49
2022/12/22 10:51:56;;;;;;;2.00;0.80;;;11.80;99.90;;;;;;5052666;28;20021;-51
2022/12/22 10:54:28;;;;;;;3.58;0.82;;;11.70;99.90;;;;;;5051594;28;20063;-51
2022/12/22 10:57:20;;;;;;;2.15;1.20;;;11.70;99.90;;;;;;5051260;28;20063;-49
2022/12/22 11:00:28;;;;;;;4.13;1.08;;;11.80;99.90;;;;;;5052349;28;20037;-49
2022/12/22 11:02:56;;;;;;;3.15;0.63;;;11.80;99.90;;;;;;5044748;28;20030;-48
2022/12/22 11:05:22;;;;;;;5.88;1.10;;;11.80;99.90;;;;;;5032814;28;20485;-48
2022/12/22 11:07:48;;;;;;;5.80;1.27;;;11.80;99.90;;;;;;5035996;28;20087;-52
2022/12/22 11:10:13;;;;;;;4.20;1.20;;;11.90;99.90;;;;;;5051054;28;20097;-51
2022/12/22 11:13:06;;;;;;;3.60;0.80;;;12.00;99.90;;;;;;5051840;28;20443;-50
2022/12/22 11:15:42;;;;;;;1.98;0.68;;;12.00;99.90;;;;;;5052745;28;20017;-50
2022/12/22 11:18:30;;;;;;;3.20;0.80;;;12.00;99.90;;;;;;5051066;28;20021;-50
2022/12/22 11:21:25;;;;;;;2.70;1.45;;;12.10;99.90;;;;;;5053085;28;20024;-52
2022/12/22 11:24:12;;;;;;;1.23;0.60;;;12.10;99.90;;;;;;5050708;28;20544;-54
2022/12/22 11:26:46;;;;;;;0.77;0.32;;;12.10;99.90;;;;;;5051090;28;20025;-51
2022/12/22 11:29:27;;;;;;;1.33;0.50;;;12.10;99.90;;;;;;5051500;28;20017;-52
2022/12/22 11:32:01;;;;;;;1.00;0.50;;;12.20;99.90;;;;;;5051882;28;20396;-49
2022/12/22 11:34:40;;;;;;;0.95;0.50;;;12.10;99.90;;;;;;5052280;28;20025;-49
2022/12/22 11:37:17;;;;;;;1.20;0.52;;;12.10;99.90;;;;;;5034367;28;20106;-51
2022/12/22 11:39:51;;;;;;;3.08;0.80;;;12.10;99.90;;;;;;5052525;28;20025;-52
2022/12/22 11:42:51;;;;;;;1.20;0.50;;;12.10;99.90;;;;;;5051923;28;20027;-51
2022/12/22 11:45:20;;;;;;;0.55;0.55;;;12.00;99.90;;;;;;5034126;28;20068;-51
2022/12/22 11:48:15;;;;;;;1.77;0.65;;;11.80;99.90;;;;;;5051903;28;20031;-53
2022/12/22 11:50:47;;;;;;;1.98;0.88;;;11.60;99.90;;;;;;5051516;28;20124;-51
2022/12/22 11:53:45;;;;;;;3.75;1.95;;;11.40;99.90;;;;;;5050963;28;20059;-51
2022/12/22 11:56:25;;;;;;;0.43;0.43;;;11.30;99.90;;;;;;5052104;28;20449;-52
2022/12/22 11:58:53;;;;;;;0.60;0.60;;;11.20;99.90;;;;;;5051870;28;20021;-50
2022/12/22 12:01:55;;;;;;;0.52;0.40;;;11.10;99.90;;;;;;5051469;28;20025;-52
2022/12/22 12:04:40;;;;;;;1.63;0.47;;;11.00;99.90;;;;;;5027757;28;20041;-53
2022/12/22 12:07:34;;;;;;;0.38;0.38;;;11.00;99.90;;;;;;5051547;28;20032;-52
2022/12/22 12:10:09;;;;;;;0.50;0.50;;;10.90;99.90;;;;;;5051647;28;20040;-51
2022/12/22 12:13:09;;;;;;;1.35;0.40;;;10.90;99.90;;;;;;5050708;28;20021;-53
2022/12/22 12:15:58;;;;;;;0.40;0.40;;;10.90;99.90;;;;;;5048621;28;20036;-53
2022/12/22 12:18:51;;;;;;;1.48;0.30;;;11.00;99.90;;;;;;5051562;28;20397;-50
2022/12/22 12:21:27;;;;;;;0.32;0.32;;;11.00;99.90;;;;;;5050107;28;20025;-50
2022/12/22 12:24:30;;;;;;;0.28;0.28;;;11.10;99.90;;;;;;5050465;28;20032;-49
2022/12/22 12:27:02;;;;;;;0.30;0.30;;;11.10;99.90;;;;;;5050276;28;20391;-50
2022/12/22 12:29:37;;;;;;;2.33;0.50;;;11.10;99.90;;;;;;5049040;28;20037;-52
2022/12/22 12:32:08;;;;;;;0.57;0.57;;;11.20;99.90;;;;;;5050466;28;20014;-48
2022/12/22 12:34:40;;;;;;;0.68;0.40;;;11.20;99.90;;;;;;5051248;28;20040;-50
2022/12/22 12:37:20;;;;;;;1.67;0.60;;;11.20;99.90;;;;;;5051289;28;20096;-55
2022/12/22 12:40:02;;;;;;;0.52;0.52;;;11.30;99.90;;;;;;5033422;28;20025;-53
2022/12/22 12:42:39;;;;;;;0.43;0.30;;;11.30;99.90;;;;;;5049238;28;20515;-49
2022/12/22 12:45:34;;;;;;;0.40;0.40;;;11.30;99.90;;;;;;5051028;28;20028;-54
2022/12/22 12:48:21;;;;;;;0.98;0.60;;;11.40;99.90;;;;;;5044156;28;20037;-52
2022/12/22 12:50:48;;;;;;;3.15;1.20;;;11.40;99.90;;;;;;5051487;28;20021;-53
2022/12/22 12:53:14;;;;;;;0.60;0.60;;;11.50;99.90;;;;;;5032688;28;20033;-55
2022/12/22 12:55:39;;;;;;;0.30;0.30;;;11.50;99.90;;;;;;5051459;28;20045;-54
2022/12/22 12:58:09;;;;;;;2.38;0.50;;;11.50;99.90;;;;;;5051172;28;20083;-49
2022/12/22 13:00:34;;;;;;;0.30;0.30;;;11.50;99.90;;;;;;5049905;28;20048;-51
2022/12/22 13:03:23;;;;;;;0.50;0.40;;;11.50;99.90;;;;;;5050439;28;20063;-50
2022/12/22 13:06:03;;;;;;;0.30;0.30;;;11.50;99.90;;;;;;5043303;28;20033;-51
2022/12/22 13:08:52;;;;;;;0.30;0.30;;;11.50;99.90;;;;;;5033370;28;20036;-50
2022/12/22 13:11:28;;;;;;;0.50;0.50;;;11.50;99.90;;;;;;5051053;28;20025;-49
2022/12/22 13:13:55;;;;;;;2.35;0.40;;;11.60;99.90;;;;;;5050000;28;20029;-51
2022/12/22 13:16:24;;;;;;;0.40;0.40;;;11.60;99.90;;;;;;5050820;28;20458;-50
2022/12/22 13:18:50;;;;;;;0.40;0.40;;;11.60;99.90;;;;;;5050965;28;20025;-49
2022/12/22 13:21:25;;;;;;;1.40;0.32;;;11.70;99.90;;;;;;5032980;28;20115;-50
2022/12/22 13:23:53;;;;;;;1.10;0.70;;;11.70;99.90;;;;;;5049693;28;20408;-53
2022/12/22 13:26:31;;;;;;;0.70;0.70;;;11.70;99.90;;;;;;5077826;22;20484;-55
2022/12/22 13:29:13;;;;;;;1.58;0.80;;;11.60;99.90;;;;;;5069823;28;20021;-60
2022/12/22 13:31:58;;;;;;;0.90;0.70;;;11.60;99.90;;;;;;5073591;28;20406;-58
2022/12/22 13:34:35;;;;;;;0.47;0.30;;;11.40;99.90;;;;;;5074751;28;20029;-57
2022/12/22 13:37:21;;;;;;;0.30;0.30;;;11.30;99.90;;;;;;5054609;28;20032;-57
2022/12/22 13:40:05;;;;;;;2.80;0.35;;;11.20;99.90;;;;;;5054571;28;20507;-57
2022/12/22 13:42:34;;;;;;;1.85;0.40;;;11.10;99.90;;;;;;5052395;28;20029;-59
2022/12/22 13:45:00;;;;;;;0.65;0.50;;;11.10;99.90;;;;;;5052941;28;20087;-54
2022/12/22 13:47:26;;;;;;;0.30;0.30;;;11.00;99.90;;;;;;5054578;28;20025;-59
2022/12/22 13:49:52;;;;;;;3.30;0.30;;;11.00;99.90;;;;;;5054455;28;20040;-61
2022/12/22 13:52:20;;;;;;;0.30;0.30;;;11.00;99.90;;;;;;5053843;28;20021;-59
2022/12/22 13:54:46;;;;;;;0.85;0.45;;;11.00;99.90;;;;;;5054303;28;20025;-54
2022/12/22 13:57:20;;;;;;;0.47;0.47;;;10.90;99.90;;;;;;5052831;28;20136;-58
2022/12/22 13:59:49;;;;;;;1.00;0.57;;;11.00;99.90;;;;;;5054124;28;20071;-58
2022/12/22 14:02:18;;;;;;;0.55;0.50;;;11.00;99.90;;;;;;5052244;28;20025;-58
2022/12/22 14:05:03;;;;;;;0.38;0.28;;;11.00;99.90;;;;;;5053887;28;20123;-59
2022/12/22 14:07:28;;;;;;;0.50;0.50;;;11.00;99.90;;;;;;5053908;28;20550;-56
2022/12/22 14:09:55;;;;;;;0.40;0.40;;;11.00;99.90;;;;;;5053757;28;20032;-56
2022/12/22 14:12:43;;;;;;;1.08;0.88;;;11.00;99.90;;;;;;5053064;28;20090;-58
2022/12/22 14:15:17;;;;;;;6.82;3.63;;;11.00;99.90;;;;;;5052371;28;20413;-53
2022/12/22 14:17:43;;;;;;;2.60;2.33;;;11.00;99.90;;;;;;5053942;28;20496;-58
2022/12/22 14:20:20;;;;;;;1.98;1.25;;;11.10;99.90;;;;;;5053513;28;20295;-54
2022/12/22 14:22:57;;;;;;;0.63;0.50;;;11.10;99.90;;;;;;5053020;28;20029;-55
2022/12/22 14:25:41;;;;;;;0.50;0.50;;;11.20;99.90;;;;;;5053176;28;20025;-56
2022/12/22 14:28:17;;;;;;;0.68;0.68;;;11.20;99.90;;;;;;5051251;28;20956;-57
2022/12/22 14:30:47;;;;;;;1.27;1.17;;;11.10;99.90;;;;;;5052045;28;20060;-57
2022/12/22 14:33:16;;;;;;;1.52;0.60;;;11.20;99.90;;;;;;5052666;28;20102;-56
2022/12/22 14:35:42;;;;;;;0.52;0.52;;;11.20;99.90;;;;;;5053588;28;20021;-60
2022/12/22 14:38:23;;;;;;;0.60;0.60;;;11.20;99.90;;;;;;5053714;28;20033;-58
2022/12/22 14:40:50;;;;;;;0.40;0.40;;;11.10;99.90;;;;;;5053390;28;20029;-56
2022/12/22 14:43:15;;;;;;;1.13;0.98;;;11.00;99.90;;;;;;5052332;28;20021;-52
2022/12/22 14:45:41;;;;;;;0.90;0.50;;;11.00;99.90;;;;;;5053262;28;20028;-54
2022/12/22 14:48:08;;;;;;;0.40;0.40;;;11.10;99.90;;;;;;5052954;28;20029;-54
2022/12/22 14:50:35;;;;;;;0.68;0.50;;;11.10;99.90;;;;;;5052136;28;20509;-54
2022/12/22 14:53:03;;;;;;;0.40;0.40;;;11.10;99.90;;;;;;5052101;28;20033;-53
2022/12/22 14:55:40;;;;;;;0.45;0.45;;;11.10;99.90;;;;;;5053239;28;20481;-60
2022/12/22 14:58:09;;;;;;;1.17;0.40;;;11.10;99.90;;;;;;5053373;28;20017;-55
2022/12/22 15:00:40;;;;;;;0.45;0.40;;;11.00;99.90;;;;;;5052001;28;20215;-59
2022/12/22 15:03:31;;;;;;;0.40;0.40;;;11.00;99.90;;;;;;5051207;28;20036;-57
2022/12/22 15:06:36;;;;;;;0.40;0.40;;;11.10;99.90;;;;;;5051862;28;20028;-57
2022/12/22 15:09:05;;;;;;;0.40;0.40;;;11.10;99.90;;;;;;5052603;28;20025;-56
2022/12/22 15:11:32;;;;;;;0.40;0.40;;;11.00;99.90;;;;;;5051233;28;20069;-59
2022/12/22 15:13:57;;;;;;;0.40;0.40;;;11.00;99.90;;;;;;5052173;28;20033;-58
2022/12/22 15:16:23;;;;;;;0.45;0.40;;;11.10;99.90;;;;;;5052351;28;20029;-55
2022/12/22 15:18:50;;;;;;;0.40;0.40;;;11.00;99.90;;;;;;5051525;28;20391;-59
2022/12/22 15:21:17;;;;;;;2.28;0.52;;;11.10;99.90;;;;;;5052456;28;20147;-57
2022/12/22 15:23:43;;;;;;;1.00;0.60;;;11.00;99.90;;;;;;5052037;28;20108;-58
2022/12/22 15:26:09;;;;;;;0.50;0.50;;;11.00;99.90;;;;;;5052062;28;20028;-58
2022/12/22 15:28:35;;;;;;;0.40;0.40;;;11.00;99.90;;;;;;5052758;28;20033;-57
2022/12/22 15:31:02;;;;;;;0.38;0.38;;;10.90;99.90;;;;;;5052200;28;20464;-56
2022/12/22 15:33:29;;;;;;;0.40;0.40;;;11.00;99.90;;;;;;5050211;28;20037;-55
2022/12/22 15:35:54;;;;;;;1.05;0.70;;;11.00;99.90;;;;;;5050527;28;20447;-55
2022/12/22 15:38:22;;;;;;;0.60;0.57;;;11.00;99.90;;;;;;5051350;28;20025;-52
2022/12/22 15:40:48;;;;;;;1.30;1.20;;;11.00;99.90;;;;;;5051662;28;20032;-58
2022/12/22 15:43:15;;;;;;;0.60;0.60;;;11.00;99.90;;;;;;5051096;28;20033;-54
2022/12/22 15:45:41;;;;;;;0.57;0.52;;;11.00;99.90;;;;;;5051803;28;20115;-56
2022/12/22 15:48:17;;;;;;;0.50;0.50;;;11.00;99.90;;;;;;5051451;28;20074;-56
2022/12/22 15:50:43;;;;;;;;;;;11.00;99.90;;;;;;5052052;28;20484;-56
2022/12/22 15:53:15;;;;;;;0.38;0.38;;;11.00;99.90;;;;;;5050466;28;20368;-57
2022/12/22 15:55:44;;;;;;;0.65;0.40;;;11.00;99.90;;;;;;5051522;28;20040;-54
2022/12/22 15:58:14;;;;;;;0.40;0.40;;;10.90;99.90;;;;;;5051461;28;20039;-57
2022/12/22 16:00:39;;;;;;;0.45;0.45;;;10.90;99.90;;;;;;5051651;28;20096;-53
2022/12/22 16:03:05;;;;;;;0.40;0.40;;;10.90;99.90;;;;;;5050662;28;20025;-52
2022/12/22 16:05:32;;;;;;;0.40;0.40;;;10.90;99.90;;;;;;5050815;28;20013;-54
2022/12/22 16:07:58;;;;;;;6.60;0.85;;;10.80;99.90;;;;;;5051290;28;20028;-55
2022/12/22 16:10:28;;;;;;;0.40;0.40;;;10.80;99.90;;;;;;5056920;28;20543;-56
2022/12/22 16:12:59;;;;;;;2.20;0.40;;;10.80;99.90;;;;;;5057382;28;20024;-55
2022/12/22 16:15:30;;;;;;;0.57;0.40;;;10.80;99.90;;;;;;5057641;28;20025;-58
2022/12/22 16:17:57;;;;;;;0.45;0.45;;;10.80;99.90;;;;;;5058026;28;20029;-56
2022/12/22 16:20:24;;;;;;;3.00;0.40;;;10.80;99.90;;;;;;5059490;28;20025;-52
2022/12/22 16:22:51;;;;;;;0.55;0.40;;;10.80;99.90;;;;;;5056949;28;20025;-59
2022/12/22 16:25:30;;;;;;;1.33;0.82;;;10.80;99.90;;;;;;5056255;28;20025;-55
2022/12/22 16:27:56;;;;;;;0.63;0.63;;;10.90;99.90;;;;;;5059487;28;20108;-56
2022/12/22 16:30:24;;;;;;;0.57;0.57;;;10.90;99.90;;;;;;5055760;28;20053;-54
2022/12/22 16:32:50;;;;;;;1.08;0.70;;;10.80;99.90;;;;;;5050631;28;20617;-55
2022/12/22 16:35:21;;;;;;;2.78;1.02;;;10.80;99.90;;;;;;5052649;28;20041;-57
2022/12/22 16:37:47;;;;;;;0.95;0.95;;;10.80;99.90;;;;;;5052337;28;20032;-55
2022/12/22 16:40:14;;;;;;;3.20;0.95;;;10.80;99.90;;;;;;5051260;28;20028;-51
2022/12/22 16:42:43;;;;;;;1.67;1.30;;;10.70;99.90;;;;;;5053655;28;20392;-56
2022/12/22 16:45:36;;;;;;;1.35;1.17;;;10.80;99.90;;;;;;5052956;28;20033;-57